Time;durP1;ratioP1;P1;durP2;ratioP2;P2;SDS_P1;SDS_P2;PMS_P1;PMS_P2;Temp;Humidity;BMP_temperature;BMP_pressure;BME280_temperature;BME280_humidity;BME280_pressure;Samples;Min_cycle;Max_cycle;Signal;HPM_P1;HPM_P2
2023/07/07 00:01:10;;;;;;;9.40;7.77;;;16.30;1.00;;;;;;5005735;28;20593;-77
2023/07/07 00:03:38;;;;;;;7.97;7.17;;;16.30;1.00;;;;;;5004155;28;20506;-75
2023/07/07 00:06:05;;;;;;;7.60;6.80;;;16.20;1.00;;;;;;4996883;28;20475;-74
2023/07/07 00:08:33;;;;;;;7.07;6.43;;;16.20;1.00;;;;;;4995576;28;22452;-74
2023/07/07 00:11:00;;;;;;;7.53;6.90;;;16.10;1.00;;;;;;4992931;28;20539;-74
2023/07/07 00:13:28;;;;;;;8.03;7.37;;;16.10;1.00;;;;;;4987478;28;20620;-74
2023/07/07 00:16:02;;;;;;;8.27;7.47;;;16.00;1.00;;;;;;4996374;28;20461;-77
2023/07/07 00:18:29;;;;;;;9.87;7.40;;;16.00;1.00;;;;;;5004382;28;20528;-73
2023/07/07 00:20:57;;;;;;;9.17;7.40;;;16.00;1.00;;;;;;5002311;28;20470;-74
2023/07/07 00:23:32;;;;;;;8.20;7.17;;;15.90;1.00;;;;;;5000762;28;21416;-75
2023/07/07 00:26:01;;;;;;;6.80;6.10;;;15.90;1.00;;;;;;4991346;28;20488;-75
2023/07/07 00:28:28;;;;;;;11.73;7.90;;;15.90;1.00;;;;;;4990964;28;22363;-74
2023/07/07 00:30:56;;;;;;;7.43;6.73;;;15.90;1.00;;;;;;4993872;28;21589;-74
2023/07/07 00:33:25;;;;;;;8.20;7.20;;;15.80;1.00;;;;;;4993977;28;20519;-75
2023/07/07 00:35:53;;;;;;;7.90;7.03;;;15.80;1.00;;;;;;5063973;22;20454;-75
2023/07/07 00:38:20;;;;;;;7.37;6.67;;;15.80;1.00;;;;;;4991393;28;20489;-74
2023/07/07 00:40:48;;;;;;;7.93;6.60;;;15.70;1.00;;;;;;4996301;28;20532;-74
2023/07/07 00:43:18;;;;;;;7.30;6.60;;;15.70;1.00;;;;;;4987089;28;20473;-74
2023/07/07 00:45:45;;;;;;;7.03;6.30;;;15.70;1.00;;;;;;4983620;28;20560;-73
2023/07/07 00:48:16;;;;;;;7.40;6.50;;;15.70;1.00;;;;;;4994259;28;20951;-74
2023/07/07 00:50:52;;;;;;;8.33;7.30;;;15.70;1.00;;;;;;4997454;28;20810;-75
2023/07/07 00:53:20;;;;;;;8.13;7.27;;;15.70;1.00;;;;;;5002962;28;20479;-75
2023/07/07 00:55:50;;;;;;;7.90;7.13;;;15.70;1.00;;;;;;4999630;28;20445;-75
2023/07/07 00:58:22;;;;;;;8.27;7.33;;;15.70;1.00;;;;;;4998637;28;20969;-74
2023/07/07 01:00:52;;;;;;;7.10;5.97;;;15.70;1.00;;;;;;4999006;28;20998;-75
2023/07/07 01:03:23;;;;;;;7.80;7.00;;;15.60;1.00;;;;;;5019886;22;20469;-73
2023/07/07 01:05:55;;;;;;;7.03;6.37;;;15.60;1.00;;;;;;4995494;28;20461;-72
2023/07/07 01:08:23;;;;;;;7.57;6.53;;;15.50;1.00;;;;;;4997553;28;20855;-72
2023/07/07 01:10:50;;;;;;;7.60;6.80;;;15.50;1.00;;;;;;4998994;28;20465;-71
2023/07/07 01:13:18;;;;;;;7.43;6.50;;;15.40;1.00;;;;;;4995474;28;20481;-72
2023/07/07 01:15:53;;;;;;;7.80;7.00;;;15.30;1.00;;;;;;5000662;28;20600;-71
2023/07/07 01:18:31;;;;;;;7.50;6.80;;;15.30;1.00;;;;;;4999668;28;20913;-72
2023/07/07 01:21:09;;;;;;;8.03;6.50;;;15.30;1.00;;;;;;5002088;28;20456;-71
2023/07/07 01:24:30;;;;;;;6.10;5.60;;;15.30;1.00;;;;;;4994844;28;20486;-71
2023/07/07 01:27:30;;;;;;;7.43;6.53;;;15.30;1.00;;;;;;4990332;28;20454;-72
2023/07/07 01:30:24;;;;;;;6.77;6.17;;;15.30;1.00;;;;;;4973915;28;20465;-71
2023/07/07 01:32:53;;;;;;;8.93;6.27;;;15.30;1.00;;;;;;4993302;28;20458;-71
2023/07/07 01:35:21;;;;;;;7.30;6.60;;;15.20;1.00;;;;;;4999598;28;20476;-73
2023/07/07 01:37:53;;;;;;;7.80;7.13;;;15.20;1.00;;;;;;5000382;28;20556;-70
2023/07/07 01:40:21;;;;;;;7.90;6.30;;;15.30;1.00;;;;;;4997699;28;20797;-71
2023/07/07 01:43:04;;;;;;;7.10;6.30;;;15.20;1.00;;;;;;4998889;28;20589;-71
2023/07/07 01:45:39;;;;;;;6.37;5.87;;;15.20;1.00;;;;;;4994005;28;20500;-73
2023/07/07 01:48:14;;;;;;;7.40;6.43;;;15.20;1.00;;;;;;4993670;28;21001;-71
2023/07/07 01:50:41;;;;;;;6.33;5.83;;;15.10;1.00;;;;;;5001189;28;20481;-71
2023/07/07 01:53:12;;;;;;;8.20;6.60;;;15.10;1.00;;;;;;4996119;28;20902;-71
2023/07/07 01:55:44;;;;;;;6.67;6.17;;;15.10;1.00;;;;;;4993987;28;22356;-72
2023/07/07 01:58:12;;;;;;;8.23;7.50;;;15.10;1.00;;;;;;4996042;28;20581;-71
2023/07/07 02:00:43;;;;;;;7.27;6.57;;;15.10;1.00;;;;;;4995755;28;20818;-71
2023/07/07 02:03:11;;;;;;;7.57;6.83;;;15.10;1.00;;;;;;4993976;28;20473;-72
2023/07/07 02:05:39;;;;;;;8.13;7.20;;;15.00;1.00;;;;;;4992439;28;20644;-71
2023/07/07 02:08:06;;;;;;;6.87;6.23;;;15.00;1.00;;;;;;4985754;28;20449;-70
2023/07/07 02:10:33;;;;;;;7.13;6.50;;;15.00;1.00;;;;;;4995771;28;20461;-70
2023/07/07 02:13:00;;;;;;;8.60;6.50;;;14.90;1.00;;;;;;4994986;28;21070;-70
2023/07/07 02:15:27;;;;;;;11.70;7.53;;;14.90;1.00;;;;;;4996670;28;20856;-72
2023/07/07 02:17:55;;;;;;;11.63;7.60;;;14.80;1.00;;;;;;4998849;28;20495;-71
2023/07/07 02:20:22;;;;;;;9.17;7.00;;;14.80;1.00;;;;;;4996246;28;20525;-72
2023/07/07 02:22:49;;;;;;;6.23;5.60;;;14.80;1.00;;;;;;4989015;28;20513;-71
2023/07/07 02:25:16;;;;;;;7.20;6.00;;;14.80;1.00;;;;;;4981784;28;20484;-71
2023/07/07 02:27:43;;;;;;;9.00;6.70;;;14.80;1.00;;;;;;4994567;28;20564;-72
2023/07/07 02:30:10;;;;;;;7.57;6.97;;;14.70;1.00;;;;;;4995178;28;21025;-70
2023/07/07 02:32:37;;;;;;;6.57;6.03;;;14.60;1.00;;;;;;4996379;28;20466;-71
2023/07/07 02:35:06;;;;;;;8.20;6.17;;;14.60;1.00;;;;;;4996356;28;20952;-71
2023/07/07 02:37:34;;;;;;;7.53;6.07;;;14.60;1.00;;;;;;4994820;28;20467;-71
2023/07/07 02:40:01;;;;;;;8.07;7.30;;;14.60;1.00;;;;;;4996169;28;20472;-72
2023/07/07 02:42:27;;;;;;;7.53;6.60;;;14.50;1.00;;;;;;4998216;28;20460;-72
2023/07/07 02:44:54;;;;;;;9.23;6.53;;;14.50;1.00;;;;;;4989536;28;21120;-72
2023/07/07 02:47:21;;;;;;;7.50;6.40;;;14.50;1.00;;;;;;4999948;28;20982;-71
2023/07/07 02:49:48;;;;;;;7.23;6.50;;;14.50;1.00;;;;;;4990307;28;20522;-71
2023/07/07 02:52:16;;;;;;;7.80;7.10;;;14.50;1.00;;;;;;4989000;28;22277;-70
2023/07/07 02:54:43;;;;;;;10.83;6.93;;;14.50;1.00;;;;;;4988208;28;20520;-71
2023/07/07 02:57:10;;;;;;;7.57;6.73;;;14.50;1.00;;;;;;4988801;28;20487;-71
2023/07/07 02:59:37;;;;;;;7.60;6.90;;;14.50;1.00;;;;;;4989799;28;20588;-71
2023/07/07 03:02:05;;;;;;;7.70;6.93;;;14.50;1.00;;;;;;4995744;28;20477;-72
2023/07/07 03:04:32;;;;;;;8.50;6.37;;;14.50;1.00;;;;;;4999487;28;20488;-70
2023/07/07 03:06:59;;;;;;;7.73;7.03;;;14.50;1.00;;;;;;4999749;28;20541;-71
2023/07/07 03:09:28;;;;;;;14.07;7.90;;;14.50;1.00;;;;;;4989100;28;20469;-71
2023/07/07 03:11:55;;;;;;;8.30;7.50;;;14.60;1.00;;;;;;4990482;28;20462;-71
2023/07/07 03:14:23;;;;;;;7.70;7.00;;;14.60;1.00;;;;;;4994446;28;20535;-71
2023/07/07 03:16:51;;;;;;;8.10;7.23;;;14.60;1.00;;;;;;5000754;28;20659;-71
2023/07/07 03:19:19;;;;;;;8.60;6.47;;;14.60;1.00;;;;;;4998851;28;20473;-71
2023/07/07 03:21:46;;;;;;;7.90;7.00;;;14.60;1.00;;;;;;5000712;28;20490;-70
2023/07/07 03:24:15;;;;;;;9.77;8.90;;;14.50;1.00;;;;;;5000370;28;20559;-71
2023/07/07 03:26:44;;;;;;;8.60;7.13;;;14.60;1.00;;;;;;4990785;28;20449;-72
2023/07/07 03:29:11;;;;;;;10.40;7.47;;;14.60;1.00;;;;;;4999302;28;20508;-71
2023/07/07 03:31:39;;;;;;;8.37;7.57;;;14.50;1.00;;;;;;5001007;28;20461;-73
2023/07/07 03:34:07;;;;;;;9.03;7.97;;;14.50;1.00;;;;;;5001053;28;20481;-71
2023/07/07 03:36:36;;;;;;;9.57;8.53;;;14.60;1.00;;;;;;4999327;28;20577;-71
2023/07/07 03:39:04;;;;;;;8.53;7.67;;;14.60;1.00;;;;;;4999488;28;20674;-71
2023/07/07 03:41:31;;;;;;;10.27;8.57;;;14.60;1.00;;;;;;4998382;28;20460;-72
2023/07/07 03:44:00;;;;;;;9.20;7.40;;;14.50;1.00;;;;;;4992341;28;21009;-71
2023/07/07 03:46:29;;;;;;;8.87;7.50;;;14.50;1.00;;;;;;4986792;28;20461;-72
2023/07/07 03:48:58;;;;;;;23.30;8.10;;;14.60;1.00;;;;;;4989474;28;20469;-72
2023/07/07 03:51:28;;;;;;;12.93;8.47;;;14.60;1.00;;;;;;4991997;28;20960;-71
2023/07/07 03:53:55;;;;;;;18.77;7.70;;;14.60;1.00;;;;;;4992332;28;20484;-71
2023/07/07 03:56:22;;;;;;;10.43;7.70;;;14.60;1.00;;;;;;5000129;28;21230;-72
2023/07/07 03:58:50;;;;;;;9.07;7.70;;;14.70;1.00;;;;;;4999624;28;20591;-71
2023/07/07 04:01:18;;;;;;;11.73;8.33;;;14.70;1.00;;;;;;5000023;28;21070;-71
2023/07/07 04:03:47;;;;;;;9.83;7.53;;;14.70;1.00;;;;;;4992168;28;20477;-71
2023/07/07 04:06:14;;;;;;;8.73;7.80;;;14.80;1.00;;;;;;4997660;28;20515;-70
2023/07/07 04:08:41;;;;;;;13.20;11.30;;;14.70;1.00;;;;;;4995326;28;22404;-71
2023/07/07 04:11:11;;;;;;;9.70;7.70;;;14.80;1.00;;;;;;4983110;28;20469;-72
2023/07/07 04:13:40;;;;;;;9.10;8.20;;;14.80;1.00;;;;;;4988793;28;20509;-71
2023/07/07 04:16:09;;;;;;;10.60;7.60;;;14.80;1.00;;;;;;4990342;28;20821;-70
2023/07/07 04:18:38;;;;;;;13.93;10.23;;;14.90;1.00;;;;;;4986841;28;20464;-71
2023/07/07 04:21:07;;;;;;;13.00;8.47;;;14.90;1.00;;;;;;5002342;28;20604;-71
2023/07/07 04:23:35;;;;;;;12.07;9.80;;;15.00;1.00;;;;;;5002786;28;20484;-71
2023/07/07 04:26:02;;;;;;;8.47;7.77;;;15.00;1.00;;;;;;5002830;28;20847;-71
2023/07/07 04:28:30;;;;;;;9.63;8.67;;;15.10;1.00;;;;;;4999059;28;20493;-70
2023/07/07 04:30:58;;;;;;;9.10;8.27;;;15.10;1.00;;;;;;5002557;28;20533;-71
2023/07/07 04:33:28;;;;;;;12.33;9.23;;;15.10;1.00;;;;;;5002055;28;20512;-70
2023/07/07 04:35:57;;;;;;;9.40;8.50;;;15.20;1.00;;;;;;4997577;28;20458;-70
2023/07/07 04:38:30;;;;;;;10.97;8.90;;;15.20;1.00;;;;;;5003607;28;20540;-72
2023/07/07 04:41:05;;;;;;;9.90;8.97;;;15.30;1.00;;;;;;5001739;28;20457;-70
2023/07/07 04:43:32;;;;;;;10.00;9.10;;;15.30;1.00;;;;;;4998802;28;20493;-71
2023/07/07 04:45:59;;;;;;;9.50;8.60;;;15.40;1.00;;;;;;5004423;28;20504;-71
2023/07/07 04:48:26;;;;;;;7.97;7.37;;;15.60;1.00;;;;;;4996758;28;20536;-71
2023/07/07 04:50:59;;;;;;;8.77;7.97;;;15.80;1.00;;;;;;5001103;28;20535;-71
2023/07/07 04:53:28;;;;;;;9.37;8.47;;;15.90;1.00;;;;;;4993319;28;20486;-71
2023/07/07 04:55:57;;;;;;;9.10;8.00;;;16.00;1.00;;;;;;4997455;28;20469;-71
2023/07/07 04:58:25;;;;;;;9.17;8.27;;;16.00;1.00;;;;;;5000077;28;21119;-71
2023/07/07 05:00:52;;;;;;;9.00;8.20;;;16.00;1.00;;;;;;5001504;28;20568;-73
2023/07/07 05:03:20;;;;;;;8.40;7.60;;;16.10;1.00;;;;;;5002458;28;20478;-73
2023/07/07 05:05:47;;;;;;;9.27;8.30;;;16.30;1.00;;;;;;4993557;28;21230;-71
2023/07/07 05:08:15;;;;;;;10.20;7.37;;;16.30;1.00;;;;;;4998224;28;20990;-72
2023/07/07 05:10:42;;;;;;;7.30;6.60;;;16.50;1.00;;;;;;5001271;28;20461;-72
2023/07/07 05:13:09;;;;;;;6.73;6.13;;;16.60;1.00;;;;;;4999648;28;20569;-71
2023/07/07 05:15:36;;;;;;;6.50;5.83;;;16.70;1.00;;;;;;5004518;28;20881;-70
2023/07/07 05:18:03;;;;;;;6.47;5.87;;;16.80;1.00;;;;;;4999126;28;20521;-71
2023/07/07 05:20:30;;;;;;;6.73;6.00;;;17.00;1.00;;;;;;5002245;28;21024;-71
2023/07/07 05:22:56;;;;;;;8.00;6.33;;;17.10;1.00;;;;;;5001951;28;20545;-72
2023/07/07 05:25:25;;;;;;;7.57;6.57;;;17.30;1.00;;;;;;4999964;28;20538;-72
2023/07/07 05:27:52;;;;;;;9.73;6.73;;;17.40;1.00;;;;;;4999298;28;20464;-70
2023/07/07 05:30:19;;;;;;;6.90;6.30;;;17.50;1.00;;;;;;4988375;28;20609;-71
2023/07/07 05:32:46;;;;;;;7.73;6.60;;;17.70;1.00;;;;;;4999508;28;20466;-71
2023/07/07 05:35:13;;;;;;;7.70;5.37;;;17.90;1.00;;;;;;4988410;28;21392;-73
2023/07/07 05:37:39;;;;;;;7.30;4.90;;;18.00;1.00;;;;;;4988718;28;20627;-73
2023/07/07 05:40:08;;;;;;;4.63;4.23;;;18.10;1.00;;;;;;4999340;28;20475;-71
2023/07/07 05:42:37;;;;;;;10.13;5.93;;;18.10;1.00;;;;;;4993824;28;20581;-70
2023/07/07 05:45:04;;;;;;;5.87;5.37;;;18.30;1.00;;;;;;4999118;28;20478;-69
2023/07/07 05:47:31;;;;;;;5.03;4.40;;;18.40;1.00;;;;;;4999174;28;20465;-67
2023/07/07 05:49:58;;;;;;;5.87;4.73;;;18.50;1.00;;;;;;4988663;28;20483;-69
2023/07/07 05:52:25;;;;;;;6.13;5.30;;;18.70;1.00;;;;;;4991227;28;21695;-69
2023/07/07 05:54:52;;;;;;;7.80;4.93;;;18.80;1.00;;;;;;5000995;28;20452;-69
2023/07/07 05:57:19;;;;;;;8.83;4.43;;;18.90;1.00;;;;;;5002941;28;20560;-69
2023/07/07 05:59:47;;;;;;;8.63;5.40;;;18.90;1.00;;;;;;5002368;28;20594;-70
2023/07/07 06:02:15;;;;;;;6.40;4.87;;;18.90;1.00;;;;;;4990271;28;20464;-68
2023/07/07 06:04:42;;;;;;;6.33;4.80;;;19.00;1.00;;;;;;4988496;28;21217;-69
2023/07/07 06:07:08;;;;;;;6.67;4.93;;;19.10;1.00;;;;;;4992162;28;20908;-68
2023/07/07 06:09:35;;;;;;;6.20;4.43;;;19.30;1.00;;;;;;4991292;28;21647;-70
2023/07/07 06:12:02;;;;;;;5.50;4.67;;;19.30;1.00;;;;;;5003012;28;20552;-69
2023/07/07 06:14:29;;;;;;;6.20;5.60;;;19.50;1.00;;;;;;4997391;28;20483;-69
2023/07/07 06:16:57;;;;;;;5.30;4.80;;;19.60;1.00;;;;;;4993023;28;20510;-70
2023/07/07 06:19:24;;;;;;;5.63;5.10;;;19.60;1.00;;;;;;4992127;28;20538;-69
2023/07/07 06:21:51;;;;;;;5.73;4.90;;;19.70;1.00;;;;;;4991636;28;20555;-70
2023/07/07 06:24:18;;;;;;;8.93;5.77;;;19.80;1.00;;;;;;4996575;28;20462;-70
2023/07/07 06:26:45;;;;;;;7.83;5.80;;;19.90;1.00;;;;;;4990339;28;20518;-70
2023/07/07 06:29:12;;;;;;;5.60;5.17;;;20.10;1.00;;;;;;5003211;28;21018;-69
2023/07/07 06:31:39;;;;;;;5.87;5.20;;;20.20;1.00;;;;;;4995222;28;20557;-68
2023/07/07 06:34:07;;;;;;;9.67;5.07;;;20.40;1.00;;;;;;5003143;28;20951;-70
2023/07/07 06:36:34;;;;;;;5.70;5.20;;;20.40;1.00;;;;;;4999996;28;20614;-71
2023/07/07 06:39:01;;;;;;;11.03;5.63;;;20.40;1.00;;;;;;5003956;28;20534;-70
2023/07/07 06:41:28;;;;;;;9.40;5.00;;;20.40;1.00;;;;;;5002380;28;20478;-70
2023/07/07 06:43:56;;;;;;;6.93;4.80;;;20.50;1.00;;;;;;5001311;28;20939;-69
2023/07/07 06:46:25;;;;;;;8.40;5.20;;;20.60;1.00;;;;;;4999241;28;20469;-70
2023/07/07 06:48:52;;;;;;;6.73;4.83;;;20.70;1.00;;;;;;4999476;28;20547;-70
2023/07/07 06:51:21;;;;;;;7.50;5.53;;;20.90;1.00;;;;;;4999292;28;20490;-70
2023/07/07 06:53:48;;;;;;;11.93;5.03;;;21.00;1.00;;;;;;4998803;28;20461;-69
2023/07/07 06:56:14;;;;;;;8.47;7.80;;;21.10;1.00;;;;;;4996822;28;20465;-69
2023/07/07 06:58:41;;;;;;;5.00;3.83;;;21.30;1.00;;;;;;4997959;28;20488;-69
2023/07/07 07:01:11;;;;;;;9.00;4.70;;;21.40;1.00;;;;;;4996818;28;20511;-71
2023/07/07 07:03:39;;;;;;;6.60;4.10;;;21.40;1.00;;;;;;4999861;28;20976;-70
2023/07/07 07:06:06;;;;;;;6.17;4.03;;;21.40;1.00;;;;;;5004223;28;20467;-69
2023/07/07 07:08:34;;;;;;;11.30;4.63;;;21.40;1.00;;;;;;4998650;28;20592;-69
2023/07/07 07:11:01;;;;;;;5.67;3.50;;;21.60;1.00;;;;;;4999420;28;20564;-69
2023/07/07 07:13:29;;;;;;;4.33;3.83;;;21.80;1.00;;;;;;5000599;28;20577;-69
2023/07/07 07:15:56;;;;;;;3.53;3.10;;;21.80;1.00;;;;;;5002557;28;20559;-70
2023/07/07 07:18:23;;;;;;;6.03;3.97;;;22.00;1.00;;;;;;4997982;28;20504;-71
2023/07/07 07:20:51;;;;;;;5.57;3.40;;;22.10;1.00;;;;;;5000564;28;20480;-71
2023/07/07 07:23:18;;;;;;;3.90;3.60;;;22.30;1.00;;;;;;4998705;28;20691;-71
2023/07/07 07:25:46;;;;;;;5.37;3.53;;;22.50;1.00;;;;;;5000056;28;20461;-71
2023/07/07 07:28:14;;;;;;;6.30;3.90;;;22.50;1.00;;;;;;4998823;28;20471;-70
2023/07/07 07:30:42;;;;;;;6.13;3.53;;;22.40;1.00;;;;;;5001332;28;20896;-70
2023/07/07 07:33:13;;;;;;;2.90;2.70;;;22.40;1.00;;;;;;5000915;28;20478;-71
2023/07/07 07:35:40;;;;;;;2.83;2.63;;;22.40;1.00;;;;;;4997833;28;20542;-70
2023/07/07 07:38:08;;;;;;;3.40;3.10;;;22.50;1.00;;;;;;5002254;28;20497;-70
2023/07/07 07:40:35;;;;;;;4.80;2.80;;;22.50;1.00;;;;;;4999673;28;20564;-70
2023/07/07 07:43:03;;;;;;;3.93;3.30;;;22.60;1.00;;;;;;4998747;28;20568;-68
2023/07/07 07:45:30;;;;;;;2.80;2.60;;;22.90;1.00;;;;;;5000376;28;21084;-68
2023/07/07 07:47:57;;;;;;;3.67;2.90;;;23.00;1.00;;;;;;4996770;28;20562;-67
2023/07/07 07:50:26;;;;;;;3.20;3.00;;;23.00;1.00;;;;;;4998124;28;20879;-70
2023/07/07 07:52:54;;;;;;;6.17;3.40;;;23.00;1.00;;;;;;4996587;28;21104;-69
2023/07/07 07:55:22;;;;;;;3.63;2.77;;;23.10;1.00;;;;;;4994809;28;21075;-68
2023/07/07 07:57:49;;;;;;;4.10;3.10;;;23.00;1.00;;;;;;5003285;28;20554;-69
2023/07/07 08:00:20;;;;;;;3.30;3.00;;;23.20;1.00;;;;;;4999768;28;20935;-68
2023/07/07 08:02:48;;;;;;;6.43;3.03;;;23.30;1.00;;;;;;4993200;28;20871;-69
2023/07/07 08:05:16;;;;;;;2.73;2.50;;;23.40;1.00;;;;;;5004590;28;20486;-68
2023/07/07 08:07:43;;;;;;;3.30;3.00;;;23.70;1.00;;;;;;5002100;28;20454;-70
2023/07/07 08:10:10;;;;;;;4.23;2.90;;;23.80;1.00;;;;;;5004023;28;20487;-70
2023/07/07 08:12:38;;;;;;;3.43;2.40;;;23.80;1.00;;;;;;4998257;28;20480;-70
2023/07/07 08:15:06;;;;;;;3.37;3.07;;;23.90;1.00;;;;;;4994924;28;20588;-70
2023/07/07 08:17:34;;;;;;;5.20;2.70;;;24.10;1.00;;;;;;4990426;28;20914;-70
2023/07/07 08:20:01;;;;;;;3.77;3.00;;;24.30;1.00;;;;;;5010425;28;20878;-72
2023/07/07 08:22:38;;;;;;;3.77;3.37;;;24.40;1.00;;;;;;5001060;28;20537;-75
2023/07/07 08:25:06;;;;;;;3.30;3.00;;;24.40;1.00;;;;;;5004505;28;20561;-71
2023/07/07 08:27:34;;;;;;;3.67;3.30;;;24.60;1.00;;;;;;5004463;28;20918;-72
2023/07/07 08:30:01;;;;;;;7.10;5.00;;;24.70;1.00;;;;;;4999215;28;20520;-71
2023/07/07 08:32:28;;;;;;;3.80;2.93;;;24.90;1.00;;;;;;5001446;28;20471;-70
2023/07/07 08:34:56;;;;;;;4.93;3.20;;;25.10;1.00;;;;;;4999828;28;20595;-69
2023/07/07 08:37:25;;;;;;;4.70;4.30;;;25.20;1.00;;;;;;5003187;28;20459;-70
2023/07/07 08:39:52;;;;;;;2.87;2.67;;;25.30;1.00;;;;;;5003771;28;20560;-71
2023/07/07 08:42:31;;;;;;;2.60;2.40;;;25.40;1.00;;;;;;5003093;28;20592;-70
2023/07/07 08:45:00;;;;;;;2.93;2.60;;;25.40;1.00;;;;;;5000020;28;20549;-69
2023/07/07 08:47:56;;;;;;;4.37;3.33;;;25.40;1.00;;;;;;4999483;28;20896;-69
2023/07/07 08:50:32;;;;;;;4.50;2.77;;;25.50;1.00;;;;;;4992355;28;20472;-70
2023/07/07 08:53:09;;;;;;;4.40;3.47;;;25.50;1.00;;;;;;4995971;28;20611;-70
2023/07/07 08:55:47;;;;;;;3.17;2.50;;;25.50;1.00;;;;;;5000987;28;21003;-70
2023/07/07 08:58:19;;;;;;;2.30;2.00;;;25.70;1.00;;;;;;4998914;28;20487;-71
2023/07/07 09:00:56;;;;;;;3.47;3.17;;;25.70;1.00;;;;;;5000209;28;20459;-72
2023/07/07 09:03:42;;;;;;;2.43;1.90;;;25.80;1.00;;;;;;5002935;28;20537;-72
2023/07/07 09:06:25;;;;;;;4.80;2.20;;;25.60;1.00;;;;;;5001663;28;20466;-72
2023/07/07 09:09:01;;;;;;;2.80;2.60;;;25.50;1.00;;;;;;5003869;28;20452;-75
2023/07/07 09:11:39;;;;;;;3.20;2.43;;;25.70;1.00;;;;;;5005200;28;20494;-72
2023/07/07 09:14:11;;;;;;;4.80;2.37;;;25.80;1.00;;;;;;5000078;28;20466;-72
2023/07/07 09:16:39;;;;;;;3.17;2.37;;;25.90;1.00;;;;;;4999590;28;20563;-71
2023/07/07 09:19:11;;;;;;;4.73;2.33;;;26.10;1.00;;;;;;5003126;28;20465;-71
2023/07/07 09:21:43;;;;;;;9.57;3.17;;;26.20;1.00;;;;;;4999688;28;20580;-72
2023/07/07 09:24:21;;;;;;;2.93;1.80;;;26.20;1.00;;;;;;5001629;28;20898;-72
2023/07/07 09:26:51;;;;;;;4.83;3.53;;;26.20;1.00;;;;;;5002802;28;21055;-72
2023/07/07 09:29:25;;;;;;;2.50;2.30;;;26.40;1.00;;;;;;5001846;28;20945;-72
2023/07/07 09:31:53;;;;;;;2.60;2.40;;;26.60;1.00;;;;;;5002514;28;20515;-73
2023/07/07 09:34:23;;;;;;;3.93;2.13;;;26.70;1.00;;;;;;5000887;28;20997;-72
2023/07/07 09:36:59;;;;;;;2.87;2.20;;;26.80;1.00;;;;;;4999644;28;20572;-72
2023/07/07 09:39:54;;;;;;;2.17;1.90;;;26.80;1.00;;;;;;4999394;28;20558;-72
2023/07/07 09:42:37;;;;;;;3.07;2.13;;;27.00;1.00;;;;;;5006773;28;20891;-72
2023/07/07 09:45:15;;;;;;;2.23;2.03;;;28.00;1.00;;;;;;4999794;28;20453;-72
2023/07/07 09:47:51;;;;;;;3.17;2.13;;;29.20;1.00;;;;;;5001627;28;20453;-71
2023/07/07 09:50:24;;;;;;;2.00;1.83;;;31.10;1.00;;;;;;4996764;28;21156;-71
2023/07/07 09:52:57;;;;;;;3.50;2.70;;;32.20;1.00;;;;;;5005417;28;20474;-72
2023/07/07 09:55:28;;;;;;;9.33;3.63;;;33.50;1.00;;;;;;4996760;28;20455;-71
2023/07/07 09:58:05;;;;;;;3.53;2.20;;;34.70;1.00;;;;;;4997993;28;20893;-71
2023/07/07 10:00:36;;;;;;;2.10;2.00;;;35.70;1.00;;;;;;4999568;28;20988;-72
2023/07/07 10:03:14;;;;;;;2.13;1.87;;;36.10;1.00;;;;;;4999698;28;21016;-73
2023/07/07 10:05:42;;;;;;;2.13;2.03;;;36.00;1.00;;;;;;4998221;28;20975;-72
2023/07/07 10:08:14;;;;;;;2.10;1.90;;;36.10;1.00;;;;;;5000308;28;20465;-76
2023/07/07 10:10:41;;;;;;;2.17;2.00;;;36.60;1.00;;;;;;5000944;28;20474;-75
2023/07/07 10:13:11;;;;;;;2.17;1.97;;;37.40;1.00;;;;;;5001423;28;20533;-72
2023/07/07 10:15:50;;;;;;;1.67;1.57;;;37.60;1.00;;;;;;4999023;28;20514;-73
2023/07/07 10:18:23;;;;;;;2.77;2.00;;;37.60;1.00;;;;;;4997522;28;21336;-72
2023/07/07 10:20:51;;;;;;;3.20;2.17;;;37.40;1.00;;;;;;4996691;28;20462;-71
2023/07/07 10:23:21;;;;;;;2.60;2.30;;;37.70;1.00;;;;;;4997461;28;20490;-73
2023/07/07 10:25:48;;;;;;;2.10;1.90;;;38.30;1.00;;;;;;4997659;28;20447;-72
2023/07/07 10:28:17;;;;;;;2.83;2.53;;;38.50;1.00;;;;;;4998933;28;20484;-72
2023/07/07 10:30:45;;;;;;;3.33;2.20;;;38.70;1.00;;;;;;4992019;28;20542;-71
2023/07/07 10:33:15;;;;;;;2.30;2.10;;;37.70;1.00;;;;;;4995956;28;20478;-73
2023/07/07 10:35:42;;;;;;;2.83;2.10;;;37.80;1.00;;;;;;5000245;28;20505;-73
2023/07/07 10:38:10;;;;;;;3.83;2.67;;;38.20;1.00;;;;;;4997512;28;20484;-72
2023/07/07 10:40:41;;;;;;;2.17;1.97;;;38.50;1.00;;;;;;4995837;28;20577;-72
2023/07/07 10:43:11;;;;;;;2.03;1.60;;;38.50;1.00;;;;;;5000174;28;20469;-72
2023/07/07 10:45:38;;;;;;;1.97;1.70;;;38.60;1.00;;;;;;4998521;28;20549;-72
2023/07/07 10:48:11;;;;;;;2.77;2.57;;;38.60;1.00;;;;;;4999376;28;20475;-73
2023/07/07 10:50:47;;;;;;;2.40;2.20;;;38.90;1.00;;;;;;5004305;28;20474;-71
2023/07/07 10:53:35;;;;;;;2.10;1.90;;;39.10;1.00;;;;;;4996859;28;21040;-72
2023/07/07 10:56:22;;;;;;;1.97;1.87;;;38.80;1.00;;;;;;4989660;28;20544;-71
2023/07/07 10:59:06;;;;;;;4.20;2.20;;;38.80;1.00;;;;;;5003369;28;20458;-71
2023/07/07 11:01:42;;;;;;;2.40;2.20;;;38.90;1.00;;;;;;5000942;28;20833;-73
2023/07/07 11:04:35;;;;;;;3.70;2.57;;;38.90;1.00;;;;;;4987776;28;20572;-72
2023/07/07 11:07:18;;;;;;;2.30;1.50;;;39.10;1.00;;;;;;4988601;28;20450;-72
2023/07/07 11:09:57;;;;;;;3.20;1.80;;;39.10;1.00;;;;;;4996691;28;22674;-71
2023/07/07 11:12:34;;;;;;;2.30;1.70;;;39.70;1.00;;;;;;5001256;28;20493;-72
2023/07/07 11:15:13;;;;;;;2.10;1.80;;;40.20;1.00;;;;;;4990875;28;20565;-74
2023/07/07 11:17:53;;;;;;;3.10;2.27;;;40.30;1.00;;;;;;4990458;28;20930;-73
2023/07/07 11:20:38;;;;;;;2.43;2.13;;;40.70;1.00;;;;;;4987805;28;20505;-72
2023/07/07 11:23:26;;;;;;;1.80;1.67;;;40.90;1.00;;;;;;4984721;28;20465;-73
2023/07/07 11:26:02;;;;;;;2.47;2.30;;;41.40;1.00;;;;;;4995639;28;20986;-71
2023/07/07 11:28:43;;;;;;;3.83;3.47;;;42.00;1.00;;;;;;4992264;28;20560;-71
2023/07/07 11:31:27;;;;;;;2.03;1.93;;;42.40;1.00;;;;;;4996791;28;20826;-72
2023/07/07 11:34:09;;;;;;;2.40;2.20;;;42.00;1.00;;;;;;4991803;28;20901;-73
2023/07/07 11:36:48;;;;;;;2.43;2.13;;;42.20;1.00;;;;;;4992415;28;20481;-73
2023/07/07 11:39:33;;;;;;;2.17;1.73;;;42.10;1.00;;;;;;4992399;28;22735;-71
2023/07/07 11:42:14;;;;;;;4.13;1.80;;;42.20;1.00;;;;;;4995229;28;20458;-71
2023/07/07 11:44:59;;;;;;;3.00;2.00;;;42.70;1.00;;;;;;4998422;28;20450;-73
2023/07/07 11:47:55;;;;;;;3.33;3.03;;;43.00;1.00;;;;;;5001887;28;20521;-74
2023/07/07 11:50:36;;;;;;;3.03;2.07;;;43.20;1.00;;;;;;5005791;28;20451;-74
2023/07/07 11:53:19;;;;;;;2.30;2.10;;;43.00;1.00;;;;;;5006600;28;20881;-74
2023/07/07 11:55:58;;;;;;;2.50;2.30;;;42.20;1.00;;;;;;5009237;28;20573;-74
2023/07/07 11:58:34;;;;;;;3.07;2.87;;;42.40;1.00;;;;;;5005166;28;20572;-73
2023/07/07 12:01:13;;;;;;;2.30;1.87;;;42.80;1.00;;;;;;5003419;28;21042;-74
2023/07/07 12:03:51;;;;;;;7.03;2.97;;;43.50;1.00;;;;;;5004222;28;20469;-75
2023/07/07 12:06:31;;;;;;;1.97;1.67;;;43.40;1.00;;;;;;5004045;28;20545;-75
2023/07/07 12:09:07;;;;;;;2.20;2.00;;;43.80;1.00;;;;;;5004229;28;20473;-75
2023/07/07 12:11:40;;;;;;;3.30;3.00;;;43.80;1.00;;;;;;5003968;28;20560;-75
2023/07/07 12:14:20;;;;;;;3.50;2.10;;;43.80;1.00;;;;;;5002014;28;20509;-74
2023/07/07 12:16:51;;;;;;;2.20;2.00;;;44.30;1.00;;;;;;5005062;28;20526;-74
2023/07/07 12:19:26;;;;;;;2.03;1.87;;;43.80;1.00;;;;;;5004201;28;20946;-76
2023/07/07 12:21:55;;;;;;;2.10;1.90;;;44.00;1.00;;;;;;5005662;28;20441;-75
2023/07/07 12:24:28;;;;;;;2.77;2.27;;;42.90;1.00;;;;;;4996901;28;20898;-76
2023/07/07 12:27:08;;;;;;;3.80;1.90;;;42.40;1.00;;;;;;5005591;28;20459;-74
2023/07/07 12:29:39;;;;;;;2.83;2.63;;;42.90;1.00;;;;;;5006004;28;20511;-75
2023/07/07 12:32:09;;;;;;;1.97;1.87;;;43.30;1.00;;;;;;5005369;28;20886;-75
2023/07/07 12:34:39;;;;;;;2.80;2.60;;;43.50;1.00;;;;;;5001541;28;20552;-75
2023/07/07 12:37:11;;;;;;;2.50;2.30;;;44.30;1.00;;;;;;5001877;28;20459;-75
2023/07/07 12:39:49;;;;;;;2.23;2.03;;;43.90;1.00;;;;;;5004303;28;20472;-75
2023/07/07 12:42:17;;;;;;;2.33;2.13;;;43.50;1.00;;;;;;5006829;28;20444;-75
2023/07/07 12:44:45;;;;;;;2.27;2.07;;;41.70;1.00;;;;;;5006357;28;20460;-75
2023/07/07 12:47:26;;;;;;;2.53;2.10;;;41.50;1.00;;;;;;5008968;28;20465;-76
2023/07/07 12:49:57;;;;;;;3.80;3.40;;;42.00;1.00;;;;;;5005991;28;20861;-74
2023/07/07 12:52:25;;;;;;;4.17;2.37;;;42.50;1.00;;;;;;5005225;28;20541;-75
2023/07/07 12:54:54;;;;;;;3.20;1.93;;;42.20;1.00;;;;;;5005582;28;20617;-74
2023/07/07 12:57:24;;;;;;;3.10;2.80;;;42.80;1.00;;;;;;5009903;28;20504;-74
2023/07/07 12:59:51;;;;;;;3.60;2.20;;;43.40;1.00;;;;;;5007244;28;20471;-76
2023/07/07 13:02:21;;;;;;;3.87;3.30;;;44.10;1.00;;;;;;5010198;28;20549;-76
2023/07/07 13:04:51;;;;;;;2.00;1.80;;;44.30;1.00;;;;;;5005512;28;20454;-75
2023/07/07 13:07:21;;;;;;;2.73;2.20;;;44.50;1.00;;;;;;5006080;28;21758;-76
2023/07/07 13:09:50;;;;;;;3.10;2.60;;;44.30;1.00;;;;;;5002127;28;20653;-75
2023/07/07 13:12:41;;;;;;;1.80;1.70;;;43.70;1.00;;;;;;5006484;28;20933;-75
2023/07/07 13:15:14;;;;;;;2.07;1.83;;;43.00;1.00;;;;;;5008598;28;20508;-76